Time;durP1;ratioP1;P1;durP2;ratioP2;P2;SDS_P1;SDS_P2;PMS_P1;PMS_P2;Temp;Humidity;BMP_temperature;BMP_pressure;BME280_temperature;BME280_humidity;BME280_pressure;Samples;Min_cycle;Max_cycle;Signal;HPM_P1;HPM_P2
2022/03/04 00:02:07;;;;;;;81.80;74.63;;;;;;;10.16;100.00;101686.39;2009012;71;32882;-68
2022/03/04 00:07:52;;;;;;;79.30;72.73;;;;;;;10.18;100.00;101698.09;2013155;71;33310;-76
2022/03/04 00:13:37;;;;;;;78.07;71.50;;;;;;;10.13;100.00;101700.77;1996778;71;32863;-68
2022/03/04 00:19:22;;;;;;;81.37;74.40;;;;;;;10.06;100.00;101700.12;2009597;71;32816;-69
2022/03/04 00:25:08;;;;;;;82.10;75.03;;;;;;;9.96;100.00;101703.65;2006069;71;32915;-69
2022/03/04 00:30:52;;;;;;;79.47;72.47;;;;;;;9.87;100.00;101708.52;2018302;71;33283;-73
2022/03/04 00:36:39;;;;;;;78.00;71.40;;;;;;;9.83;100.00;101704.59;2000662;71;33326;-68
2022/03/04 00:42:27;;;;;;;79.47;72.57;;;;;;;9.80;100.00;101703.16;2016689;71;32908;-69
2022/03/04 00:48:12;;;;;;;79.03;71.77;;;;;;;9.75;100.00;101700.89;2018283;71;32897;-69
2022/03/04 00:53:56;;;;;;;79.00;71.83;;;;;;;9.72;100.00;101704.16;2007392;71;32816;-69
2022/03/04 00:59:41;;;;;;;78.60;71.70;;;;;;;9.63;100.00;101695.45;1998790;71;32930;-69
2022/03/04 01:05:25;;;;;;;75.80;68.97;;;;;;;9.75;100.00;101698.95;2004195;71;33292;-69
2022/03/04 01:11:09;;;;;;;74.27;67.27;;;;;;;9.69;100.00;101700.53;1991432;71;33305;-75
2022/03/04 01:16:54;;;;;;;79.47;72.00;;;;;;;9.72;100.00;101696.68;1991204;71;32761;-68
2022/03/04 01:22:38;;;;;;;78.60;71.17;;;;;;;9.74;100.00;101695.89;1977784;72;32902;-75
2022/03/04 01:28:24;;;;;;;75.83;68.70;;;;;;;9.68;100.00;101694.68;2011352;71;33304;-75
2022/03/04 01:34:08;;;;;;;76.23;69.23;;;;;;;9.62;100.00;101688.25;1995094;71;33450;-75
2022/03/04 01:39:54;;;;;;;82.03;74.50;;;;;;;9.63;100.00;101690.48;2000542;71;32758;-67
2022/03/04 01:45:39;;;;;;;79.87;72.43;;;;;;;9.58;100.00;101689.87;2007439;71;33007;-75
2022/03/04 01:51:23;;;;;;;81.17;74.10;;;;;;;9.69;100.00;101694.44;2006148;71;32766;-68
2022/03/04 01:57:08;;;;;;;80.37;72.77;;;;;;;9.72;100.00;101695.29;1996788;71;32808;-69
2022/03/04 02:02:57;;;;;;;77.17;70.13;;;;;;;9.73;100.00;101690.59;2009110;71;32836;-74
2022/03/04 02:08:39;;;;;;;73.83;66.70;;;;;;;9.69;100.00;101694.44;2014603;71;30938;-68
2022/03/04 02:14:23;;;;;;;77.43;70.13;;;;;;;9.55;100.00;101684.81;1998345;71;33324;-68
2022/03/04 02:20:10;;;;;;;74.20;67.30;;;;;;;9.70;100.00;101695.27;2010885;71;32836;-75
2022/03/04 02:25:55;;;;;;;74.97;67.50;;;;;;;9.75;100.00;101687.02;2016329;71;32873;-68
2022/03/04 02:31:39;;;;;;;76.53;69.50;;;;;;;9.71;100.00;101682.55;2003823;71;32886;-68
2022/03/04 02:37:24;;;;;;;70.73;64.23;;;;;;;9.66;100.00;101678.31;2004212;71;33263;-74
2022/03/04 02:43:08;;;;;;;71.33;64.37;;;;;;;9.62;100.00;101682.70;1996873;71;32923;-74
2022/03/04 02:48:52;;;;;;;71.90;64.83;;;;;;;9.62;100.00;101683.25;2016560;71;32831;-73
2022/03/04 03:11:30;;;;;;;72.97;66.37;;;;;;;9.53;100.00;101681.48;2016176;71;32816;-68
2022/03/04 03:17:14;;;;;;;71.37;64.70;;;;;;;9.48;100.00;101690.57;2005404;71;33286;-74
2022/03/04 03:22:58;;;;;;;73.53;66.50;;;;;;;9.48;100.00;101692.50;2011140;71;33296;-74
2022/03/04 03:28:42;;;;;;;77.77;70.37;;;;;;;9.42;100.00;101707.38;2004160;71;32765;-74
2022/03/04 03:34:26;;;;;;;74.20;67.37;;;;;;;9.33;100.00;101707.53;1998412;71;32849;-74
2022/03/04 03:40:13;;;;;;;69.87;62.67;;;;;;;9.40;100.00;101710.97;2009741;71;32768;-69
2022/03/04 03:45:58;;;;;;;72.10;65.30;;;;;;;9.44;100.00;101706.05;2004125;71;32819;-74
2022/03/04 03:51:42;;;;;;;75.50;67.87;;;;;;;9.42;100.00;101708.77;2002286;71;32756;-69
2022/03/04 03:57:26;;;;;;;75.80;68.10;;;;;;;9.43;100.00;101707.13;2005505;71;32945;-68
2022/03/04 04:03:10;;;;;;;72.80;66.20;;;;;;;9.45;100.00;101713.83;1991280;71;32952;-74
2022/03/04 04:08:54;;;;;;;74.43;67.33;;;;;;;9.53;100.00;101710.59;1994652;71;33320;-69
2022/03/04 04:14:38;;;;;;;78.03;70.80;;;;;;;9.57;100.00;101707.59;2007402;71;32886;-74
2022/03/04 04:20:22;;;;;;;74.90;67.40;;;;;;;9.60;100.00;101714.01;2000084;71;32830;-68
2022/03/04 04:26:08;;;;;;;71.50;64.47;;;;;;;9.47;100.00;101714.39;2000056;70;33332;-75
2022/03/04 04:31:53;;;;;;;68.93;61.57;;;;;;;9.49;100.00;101717.76;2005559;71;33408;-74
2022/03/04 04:37:39;;;;;;;70.50;63.73;;;;;;;9.52;100.00;101717.23;1998308;71;32830;-68
2022/03/04 04:43:27;;;;;;;75.43;67.43;;;;;;;9.57;100.00;101729.24;2016317;71;32866;-68
2022/03/04 04:49:11;;;;;;;72.97;65.00;;;;;;;9.58;100.00;101728.13;2016556;71;30898;-73
2022/03/04 04:54:55;;;;;;;76.43;68.53;;;;;;;9.59;100.00;101716.48;2012831;71;32984;-74
2022/03/04 05:00:40;;;;;;;76.00;63.53;;;;;;;9.69;100.00;101724.95;1999738;71;32943;-67
2022/03/04 05:06:24;;;;;;;70.23;62.70;;;;;;;9.72;100.00;101722.19;1998697;71;32829;-68
2022/03/04 05:12:11;;;;;;;72.17;64.43;;;;;;;9.72;100.00;101729.13;1996900;71;32760;-69
2022/03/04 05:17:55;;;;;;;77.33;69.40;;;;;;;9.68;100.00;101732.97;2000638;71;33246;-68
2022/03/04 05:29:41;;;;;;;74.63;66.93;;;;;;;9.66;100.00;101755.99;2000100;71;32832;-68
2022/03/04 05:35:27;;;;;;;71.23;63.83;;;;;;;9.66;100.00;101757.38;2014708;71;32819;-75
2022/03/04 05:41:12;;;;;;;70.07;62.43;;;;;;;9.62;100.00;101764.54;1991396;71;33349;-69
2022/03/04 05:46:57;;;;;;;68.40;60.83;;;;;;;9.67;100.00;101768.73;2002049;71;32904;-74
2022/03/04 05:52:41;;;;;;;66.80;59.60;;;;;;;9.67;100.00;101780.41;1996803;71;33369;-69
2022/03/04 05:58:26;;;;;;;68.30;60.93;;;;;;;9.63;100.00;101777.86;2000688;70;33244;-74
2022/03/04 06:04:10;;;;;;;67.03;59.70;;;;;;;9.69;100.00;101776.81;1996751;71;33250;-68
2022/03/04 06:09:54;;;;;;;66.67;59.60;;;;;;;9.66;100.00;101782.34;2003681;71;33296;-74
2022/03/04 06:15:39;;;;;;;69.73;63.13;;;;;;;9.56;100.00;101796.06;2011516;71;32756;-69
2022/03/04 06:21:23;;;;;;;67.40;61.40;;;;;;;9.27;100.00;101808.38;1991270;71;32898;-69
2022/03/04 06:27:08;;;;;;;68.90;62.93;;;;;;;9.15;100.00;101807.09;2016427;71;32874;-68
2022/03/04 06:33:29;;;;;;;69.93;64.23;;;;;;;8.99;100.00;101810.13;1994619;71;33364;-68
2022/03/04 06:38:41;;;;;;;65.47;59.87;;;;;;;8.86;100.00;101819.31;2011116;71;33319;-67
2022/03/04 06:44:28;;;;;;;74.53;68.70;;;;;;;8.78;100.00;101828.03;1991346;71;33244;-73
2022/03/04 06:50:12;;;;;;;75.37;69.33;;;;;;;8.73;100.00;101837.09;2000455;71;32759;-69
2022/03/04 06:55:59;;;;;;;79.37;73.27;;;;;;;8.78;100.00;101852.42;2003863;71;32838;-74
2022/03/04 07:01:44;;;;;;;74.93;68.80;;;;;;;8.72;100.00;101858.13;2007403;70;32835;-76
2022/03/04 07:07:28;;;;;;;78.03;71.93;;;;;;;8.41;100.00;101855.31;2003821;71;32898;-73
2022/03/04 07:13:13;;;;;;;84.13;78.10;;;;;;;8.39;100.00;101859.70;2005930;71;32818;-74
2022/03/04 07:18:59;;;;;;;81.93;75.97;;;;;;;8.34;100.00;101863.77;1999956;71;32897;-68
2022/03/04 07:24:43;;;;;;;84.77;78.63;;;;;;;8.22;100.00;101880.36;2007685;71;33481;-68
2022/03/04 07:30:27;;;;;;;80.70;74.70;;;;;;;8.25;100.00;101880.44;2009973;71;33255;-68
2022/03/04 07:36:15;;;;;;;82.57;76.27;;;;;;;8.22;100.00;101887.82;2005946;71;32754;-70
2022/03/04 07:42:01;;;;;;;82.60;76.43;;;;;;;8.26;100.00;101893.16;2000478;71;32760;-69
2022/03/04 07:47:46;;;;;;;83.27;76.97;;;;;;;8.24;100.00;101896.20;1994922;71;32827;-69
2022/03/04 07:53:31;;;;;;;80.37;73.87;;;;;;;8.27;100.00;101905.08;1998305;71;33388;-74
2022/03/04 07:59:19;;;;;;;84.47;78.17;;;;;;;8.32;100.00;101903.84;2000546;71;32778;-73
2022/03/04 08:05:03;;;;;;;79.93;73.57;;;;;;;8.35;100.00;101909.72;2035558;69;33277;-68
2022/03/04 08:10:49;;;;;;;87.73;81.23;;;;;;;8.51;100.00;101913.13;2004261;71;32804;-74
2022/03/04 08:16:33;;;;;;;79.03;72.63;;;;;;;8.41;100.00;101932.83;2014645;71;33297;-71
2022/03/04 08:22:18;;;;;;;79.30;72.90;;;;;;;8.47;100.00;101933.25;2009477;71;32834;-70
2022/03/04 08:28:02;;;;;;;80.73;74.17;;;;;;;8.28;100.00;101942.75;2013113;71;33508;-73
2022/03/04 08:33:47;;;;;;;86.23;79.40;;;;;;;8.24;100.00;101947.94;2005760;71;32822;-70
2022/03/04 08:39:33;;;;;;;87.70;80.83;;;;;;;8.27;100.00;101958.52;2007898;71;33275;-73
2022/03/04 08:45:18;;;;;;;81.13;74.73;;;;;;;8.28;100.00;101969.89;2007487;71;32894;-72
2022/03/04 08:51:02;;;;;;;80.17;73.77;;;;;;;8.20;100.00;101968.34;2013557;71;32846;-72
2022/03/04 08:56:46;;;;;;;76.90;70.50;;;;;;;8.17;100.00;101974.34;1994985;71;32752;-73
2022/03/04 09:02:30;;;;;;;80.37;73.97;;;;;;;8.15;100.00;101977.91;2003790;71;33262;-69
2022/03/04 09:08:14;;;;;;;79.10;73.20;;;;;;;8.16;100.00;101971.84;2007457;71;32908;-69
2022/03/04 09:14:04;;;;;;;78.67;72.70;;;;;;;8.13;100.00;101981.98;1996959;71;33248;-73
2022/03/04 09:19:49;;;;;;;79.13;73.23;;;;;;;8.23;100.00;101987.77;2011092;71;32873;-72
2022/03/04 09:25:33;;;;;;;79.90;73.97;;;;;;;8.22;100.00;101981.92;2000460;71;32766;-71
2022/03/04 09:31:18;;;;;;;79.27;73.47;;;;;;;8.35;100.00;101983.09;2014578;71;32988;-69
2022/03/04 09:37:03;;;;;;;76.30;70.53;;;;;;;8.32;100.00;101982.20;2011760;71;32773;-70
2022/03/04 09:42:48;;;;;;;78.27;72.27;;;;;;;8.26;100.00;101980.36;2007628;71;32822;-72
2022/03/04 09:48:39;;;;;;;77.67;71.80;;;;;;;8.26;100.00;101979.55;2014538;71;32949;-71
2022/03/04 09:54:23;;;;;;;77.63;71.80;;;;;;;8.24;100.00;101982.54;2004118;71;32770;-70
2022/03/04 10:00:11;;;;;;;76.17;70.47;;;;;;;8.37;100.00;101993.93;2014630;71;33319;-73
2022/03/04 10:05:57;;;;;;;77.17;71.67;;;;;;;8.41;100.00;101987.67;2011509;71;32747;-72
2022/03/04 10:11:42;;;;;;;78.17;72.43;;;;;;;8.39;100.00;101991.20;2014698;71;33299;-73
2022/03/04 10:17:29;;;;;;;72.30;66.80;;;;;;;8.48;100.00;101995.83;2006984;71;33290;-71
2022/03/04 10:23:20;;;;;;;75.40;70.10;;;;;;;8.50;100.00;102001.98;2003731;71;33351;-70
2022/03/04 10:29:18;;;;;;;75.40;69.80;;;;;;;8.55;100.00;102004.33;1998594;71;32838;-73
2022/03/04 10:36:18;;;;;;;77.70;72.30;;;;;;;8.59;100.00;102011.60;2005754;70;32824;-75
2022/03/04 10:42:09;;;;;;;75.77;70.17;;;;;;;8.57;100.00;102006.83;2005897;71;32859;-73
2022/03/04 10:47:57;;;;;;;71.90;66.70;;;;;;;8.58;100.00;102003.83;2010768;71;32905;-71
2022/03/04 10:53:46;;;;;;;76.13;70.97;;;;;;;8.65;100.00;102014.76;2010877;71;32933;-73
2022/03/04 10:59:30;;;;;;;80.73;75.33;;;;;;;8.66;100.00;102007.60;1991504;71;32757;-71
2022/03/04 11:05:15;;;;;;;76.77;71.30;;;;;;;8.67;100.00;102011.22;2002046;71;32912;-71
2022/03/04 11:11:01;;;;;;;78.83;73.43;;;;;;;8.75;100.00;102019.69;2014626;71;32921;-69
2022/03/04 11:16:48;;;;;;;81.47;76.07;;;;;;;8.66;100.00;102015.91;1994522;71;32833;-70
2022/03/04 11:22:34;;;;;;;81.90;76.20;;;;;;;8.64;100.00;102020.84;2009048;70;32810;-69
2022/03/04 11:28:21;;;;;;;73.60;68.50;;;;;;;8.74;100.00;102006.37;2003715;71;33334;-73
2022/03/04 11:34:07;;;;;;;83.37;77.87;;;;;;;8.83;100.00;102008.22;2000011;71;32866;-70
2022/03/04 11:40:06;;;;;;;76.93;71.70;;;;;;;8.77;100.00;102005.88;2009114;71;32899;-72
2022/03/04 11:46:04;;;;;;;74.57;69.27;;;;;;;8.73;100.00;102009.41;2013132;71;33309;-73
2022/03/04 11:52:24;;;;;;;73.30;68.30;;;;;;;8.68;100.00;102005.41;2010936;71;32891;-69
2022/03/04 11:55:29;;;;;;;71.03;66.03;;;;;;;8.71;100.00;102019.87;1971681;72;26652;-69
2022/03/04 12:01:19;;;;;;;75.03;70.03;;;;;;;8.81;100.00;102012.64;2009683;71;32768;-68
2022/03/04 12:07:25;;;;;;;75.70;70.53;;;;;;;8.84;100.00;102019.06;2011095;71;33320;-69
2022/03/04 12:13:12;;;;;;;75.80;70.83;;;;;;;8.78;100.00;102019.19;2014849;70;32840;-73
2022/03/04 12:18:58;;;;;;;69.53;64.73;;;;;;;8.79;100.00;102017.56;2012958;71;32907;-69
2022/03/04 12:24:53;;;;;;;68.20;63.30;;;;;;;8.90;100.00;102018.64;1991409;71;32815;-73
2022/03/04 12:31:02;;;;;;;72.27;67.27;;;;;;;8.98;100.00;102010.77;2016478;71;33370;-73
2022/03/04 12:36:47;;;;;;;74.27;69.07;;;;;;;8.80;100.00;102012.33;2018249;71;32844;-70
2022/03/04 12:42:34;;;;;;;71.17;66.17;;;;;;;8.77;100.00;102014.75;2009288;71;32897;-73
2022/03/04 12:48:23;;;;;;;71.47;66.57;;;;;;;8.77;100.00;102002.29;2014500;71;32834;-73
2022/03/04 12:54:10;;;;;;;72.13;67.03;;;;;;;8.74;100.00;102007.75;1998025;71;32832;-69
2022/03/04 12:59:55;;;;;;;72.63;67.63;;;;;;;8.82;100.00;102005.98;2016423;71;32830;-69
2022/03/04 13:05:47;;;;;;;72.77;67.77;;;;;;;8.78;100.00;102005.33;2014857;71;32874;-71
2022/03/04 13:11:33;;;;;;;74.07;68.97;;;;;;;8.76;100.00;102012.52;2014478;71;32836;-70
2022/03/04 13:17:19;;;;;;;73.50;68.53;;;;;;;8.82;100.00;102003.75;1991418;70;32908;-73
2022/03/04 13:23:07;;;;;;;74.40;69.50;;;;;;;8.83;100.00;102010.98;1990753;71;32879;-69
2022/03/04 13:29:00;;;;;;;73.63;68.63;;;;;;;8.97;100.00;102009.63;2005922;71;33429;-73
2022/03/04 13:34:47;;;;;;;75.63;70.47;;;;;;;8.95;100.00;102002.09;2014515;71;32919;-70
2022/03/04 13:40:33;;;;;;;73.77;68.77;;;;;;;8.91;100.00;102005.91;1933190;70;33112;-70
2022/03/04 13:46:17;;;;;;;72.83;67.93;;;;;;;8.83;100.00;102008.22;2018143;71;32829;-72
2022/03/04 13:52:16;;;;;;;72.27;67.43;;;;;;;8.86;100.00;102016.03;2002436;71;33275;-71
2022/03/04 13:58:19;;;;;;;74.93;69.93;;;;;;;8.81;100.00;102011.79;2009628;71;32832;-69
2022/03/04 14:04:11;;;;;;;72.30;67.33;;;;;;;8.87;100.00;102008.86;1990274;71;32891;-72
2022/03/04 14:09:57;;;;;;;75.47;70.27;;;;;;;8.96;100.00;102003.78;1991377;71;32852;-69
2022/03/04 14:15:43;;;;;;;74.80;69.90;;;;;;;8.89;100.00;102002.55;1994964;71;32834;-72
2022/03/04 14:21:28;;;;;;;70.87;66.07;;;;;;;8.96;100.00;101996.85;2016441;71;32973;-69
2022/03/04 14:27:12;;;;;;;73.87;68.97;;;;;;;8.97;100.00;102002.70;2011115;71;32914;-69
2022/03/04 14:32:59;;;;;;;75.10;70.23;;;;;;;8.93;100.00;102018.14;2011142;71;32876;-72
2022/03/04 14:38:44;;;;;;;72.20;67.40;;;;;;;9.00;100.00;102020.20;2005426;71;32901;-72
2022/03/04 14:44:32;;;;;;;74.97;70.07;;;;;;;9.01;100.00;102019.97;2007787;71;32779;-72
2022/03/04 14:50:20;;;;;;;71.87;67.20;;;;;;;9.01;100.00;102019.97;1991412;71;32790;-70
2022/03/04 14:56:05;;;;;;;74.50;69.63;;;;;;;8.90;100.00;102031.11;1991212;71;32755;-74
2022/03/04 15:01:50;;;;;;;66.23;61.93;;;;;;;8.90;100.00;102027.77;1996828;71;32772;-72
2022/03/04 15:07:34;;;;;;;70.73;66.23;;;;;;;8.87;100.00;102039.89;2013399;71;32930;-70
2022/03/04 15:13:20;;;;;;;71.57;66.97;;;;;;;8.85;100.00;102030.99;2011686;71;33251;-68
2022/03/04 15:19:04;;;;;;;68.83;64.43;;;;;;;8.87;100.00;102035.73;2000277;71;32833;-73
2022/03/04 15:24:48;;;;;;;74.90;70.23;;;;;;;8.92;100.00;102037.22;2001862;71;32954;-71
2022/03/04 15:30:35;;;;;;;70.00;65.50;;;;;;;8.82;100.00;102037.84;2016376;71;32839;-71
2022/03/04 15:36:22;;;;;;;66.30;62.17;;;;;;;8.84;100.00;102033.45;1995098;71;32895;-71
2022/03/04 15:42:07;;;;;;;64.23;60.17;;;;;;;8.91;100.00;102037.77;2010982;71;32818;-70
2022/03/04 15:47:54;;;;;;;65.53;61.43;;;;;;;8.85;100.00;102040.16;2000214;71;33440;-73
2022/03/04 15:53:39;;;;;;;67.80;63.60;;;;;;;8.91;100.00;102039.16;2003887;71;33284;-73
2022/03/04 15:59:23;;;;;;;64.70;60.70;;;;;;;9.00;100.00;102040.99;2014773;71;32878;-71
2022/03/04 16:05:11;;;;;;;63.40;59.50;;;;;;;8.95;100.00;102045.88;1967211;72;33360;-69
2022/03/04 16:10:54;;;;;;;62.20;58.40;;;;;;;8.97;100.00;102040.95;1998057;71;32793;-71
2022/03/04 16:16:42;;;;;;;60.47;56.97;;;;;;;9.03;100.00;102038.56;2011613;71;32738;-70
2022/03/04 16:22:29;;;;;;;64.30;60.43;;;;;;;9.02;100.00;102041.06;2018129;71;32876;-72
2022/03/04 16:28:14;;;;;;;61.43;57.83;;;;;;;9.08;100.00;102048.38;2012918;71;32888;-77
2022/03/04 16:33:58;;;;;;;62.60;58.90;;;;;;;9.03;100.00;102044.11;2014711;71;33338;-71
2022/03/04 16:39:43;;;;;;;65.03;61.03;;;;;;;8.98;100.00;102039.87;2002254;71;32803;-78
2022/03/04 16:45:27;;;;;;;63.23;59.57;;;;;;;8.91;100.00;102032.22;2011226;70;32951;-76
2022/03/04 16:51:12;;;;;;;63.13;59.43;;;;;;;8.91;100.00;102040.54;2011406;71;32935;-72
2022/03/04 16:56:58;;;;;;;63.63;59.93;;;;;;;8.91;100.00;102048.85;2009767;71;32813;-74
2022/03/04 17:02:44;;;;;;;63.87;60.13;;;;;;;8.90;100.00;102055.47;2009706;71;32799;-77
2022/03/04 17:08:30;;;;;;;65.10;61.20;;;;;;;8.82;100.00;102061.94;1999959;71;33360;-77
2022/03/04 17:14:17;;;;;;;66.20;62.30;;;;;;;8.87;100.00;102068.44;2013032;71;33284;-69
2022/03/04 17:20:02;;;;;;;65.07;61.07;;;;;;;8.77;100.00;102074.31;1991119;71;32950;-74
2022/03/04 17:25:47;;;;;;;70.30;66.10;;;;;;;8.62;100.00;102083.11;1996761;71;32787;-75
2022/03/04 17:31:31;;;;;;;68.90;64.83;;;;;;;8.65;100.00;102078.47;2006000;71;32764;-76
2022/03/04 17:37:15;;;;;;;70.70;66.20;;;;;;;8.63;100.00;102084.27;2011233;71;32850;-68
2022/03/04 17:42:59;;;;;;;70.40;65.90;;;;;;;8.47;100.00;102089.70;1996940;71;32771;-71
2022/03/04 17:48:43;;;;;;;71.03;66.13;;;;;;;8.37;100.00;102092.22;1994657;71;33469;-76
2022/03/04 17:54:28;;;;;;;73.27;68.40;;;;;;;8.33;100.00;102096.02;2002348;71;33320;-71
2022/03/04 18:00:17;;;;;;;71.23;66.47;;;;;;;8.21;100.00;102105.63;1994975;70;33341;-74
2022/03/04 18:06:05;;;;;;;73.10;68.20;;;;;;;8.26;100.00;102107.69;2018354;71;32906;-78
2022/03/04 18:11:53;;;;;;;69.20;64.20;;;;;;;8.04;100.00;102104.67;2005088;71;32887;-84
2022/03/04 18:17:37;;;;;;;67.63;62.83;;;;;;;7.95;100.00;102110.78;1997107;71;32893;-80
2022/03/04 18:23:26;;;;;;;70.83;66.03;;;;;;;7.98;100.00;102115.30;1995019;71;32843;-76
2022/03/04 18:29:10;;;;;;;66.70;61.90;;;;;;;7.99;100.00;102121.68;2002481;71;33259;-73
2022/03/04 18:34:55;;;;;;;68.77;63.90;;;;;;;7.96;100.00;102124.36;2014770;71;32842;-77
2022/03/04 18:40:39;;;;;;;70.37;65.20;;;;;;;7.96;100.00;102124.36;2018374;71;32881;-74
2022/03/04 18:46:23;;;;;;;66.47;61.57;;;;;;;7.88;100.00;102130.77;1991346;70;32789;-73
2022/03/04 18:52:09;;;;;;;66.97;61.97;;;;;;;7.85;100.00;102131.26;2009641;71;32749;-73
2022/03/04 18:57:53;;;;;;;66.70;61.80;;;;;;;8.02;100.00;102123.97;2012943;71;32858;-73
2022/03/04 19:03:38;;;;;;;65.80;60.80;;;;;;;7.87;100.00;102135.49;2015089;71;32866;-72
2022/03/04 19:09:22;;;;;;;65.20;60.30;;;;;;;7.90;100.00;102141.92;1991567;71;33292;-73
2022/03/04 19:15:09;;;;;;;68.27;63.17;;;;;;;7.97;100.00;102137.12;1991293;71;33209;-74
2022/03/04 19:20:54;;;;;;;67.73;62.73;;;;;;;7.93;100.00;102138.68;1996841;71;32794;-72
2022/03/04 19:26:39;;;;;;;68.87;63.67;;;;;;;7.90;100.00;102144.69;2000609;71;33289;-72
2022/03/04 19:32:23;;;;;;;64.03;59.13;;;;;;;8.12;100.00;102145.84;2016936;71;33295;-74
2022/03/04 19:38:07;;;;;;;71.37;66.17;;;;;;;7.91;100.00;102147.77;1997033;71;32912;-74
2022/03/04 19:43:51;;;;;;;66.27;61.27;;;;;;;7.82;100.00;102157.48;2003977;71;32860;-74
2022/03/04 19:49:35;;;;;;;69.37;64.07;;;;;;;8.06;100.00;102157.00;2011793;71;33298;-74
2022/03/04 19:55:21;;;;;;;76.40;70.80;;;;;;;7.88;100.00;102151.52;2000120;71;32848;-74
2022/03/04 20:01:06;;;;;;;69.50;64.30;;;;;;;7.95;100.00;102148.14;1991392;71;32800;-74
2022/03/04 20:06:51;;;;;;;72.37;66.87;;;;;;;7.75;100.00;102153.41;2013491;71;32822;-81
2022/03/04 20:12:37;;;;;;;71.47;65.90;;;;;;;7.76;100.00;102158.41;2005484;71;32880;-76
2022/03/04 20:18:23;;;;;;;71.73;66.30;;;;;;;7.91;100.00;102157.99;2004042;71;32762;-76
2022/03/04 20:24:08;;;;;;;69.57;64.30;;;;;;;7.66;100.00;102170.02;2010924;71;33470;-75
2022/03/04 20:29:54;;;;;;;76.83;70.83;;;;;;;7.83;100.00;102168.83;2005538;71;32835;-72
2022/03/04 20:35:39;;;;;;;74.90;69.03;;;;;;;7.99;100.00;102163.19;2014861;71;33457;-68
2022/03/04 20:41:25;;;;;;;73.50;67.70;;;;;;;7.96;100.00;102169.20;1998267;71;32931;-74
2022/03/04 20:47:12;;;;;;;74.17;68.40;;;;;;;7.99;100.00;102168.72;1996291;71;32916;-75
2022/03/04 20:52:56;;;;;;;76.87;70.90;;;;;;;8.20;100.00;102165.41;1996771;70;32849;-74
2022/03/04 20:58:42;;;;;;;75.33;69.37;;;;;;;8.06;100.00;102158.38;1996902;71;32849;-76
2022/03/04 21:04:26;;;;;;;75.57;69.67;;;;;;;8.16;100.00;102160.89;2009699;71;33351;-76
2022/03/04 21:10:11;;;;;;;72.13;66.33;;;;;;;7.87;100.00;102166.45;2001115;71;32834;-79
2022/03/04 21:15:56;;;;;;;73.77;68.13;;;;;;;7.91;100.00;102157.99;1994769;71;32975;-77
2022/03/04 21:21:45;;;;;;;75.67;69.87;;;;;;;8.08;100.00;102165.92;2011274;71;33398;-77
2022/03/04 21:27:32;;;;;;;78.10;72.40;;;;;;;8.19;100.00;102170.62;2015364;71;32902;-77
2022/03/04 21:33:18;;;;;;;85.47;78.87;;;;;;;8.07;100.00;102171.99;2014951;71;32886;-78
2022/03/04 21:39:04;;;;;;;90.93;84.13;;;;;;;8.14;100.00;102172.72;2009717;71;32805;-75
2022/03/04 21:44:48;;;;;;;82.37;76.20;;;;;;;8.09;100.00;102169.81;1993162;71;33546;-77
2022/03/04 21:50:35;;;;;;;82.30;76.30;;;;;;;8.04;100.00;102175.24;2015063;71;32799;-78
2022/03/04 21:56:21;;;;;;;84.33;78.20;;;;;;;8.10;100.00;102172.89;2001298;71;33221;-79
2022/03/04 22:02:07;;;;;;;85.33;78.83;;;;;;;7.97;100.00;102164.80;2000414;71;32899;-76
2022/03/04 22:07:51;;;;;;;81.13;75.00;;;;;;;7.98;100.00;102174.79;2013552;71;33323;-78
2022/03/04 22:13:35;;;;;;;82.80;76.70;;;;;;;7.82;100.00;102179.61;2017023;70;32821;-77
2022/03/04 22:19:20;;;;;;;83.83;77.63;;;;;;;7.91;100.00;102180.97;2002566;71;32745;-76
2022/03/04 22:25:06;;;;;;;79.70;73.67;;;;;;;7.95;100.00;102185.48;2018870;71;33345;-76
2022/03/04 22:30:51;;;;;;;87.47;81.37;;;;;;;7.96;100.00;102183.84;2011725;71;32764;-78
2022/03/04 22:36:35;;;;;;;81.03;74.90;;;;;;;8.08;100.00;102181.14;1998714;71;32812;-73
2022/03/04 22:42:20;;;;;;;83.20;77.40;;;;;;;8.01;100.00;102183.99;2009365;71;32910;-75
2022/03/04 22:48:05;;;;;;;84.93;78.93;;;;;;;7.96;100.00;102182.47;2007561;71;32836;-74
2022/03/04 22:53:49;;;;;;;84.47;78.37;;;;;;;8.00;100.00;102182.87;2018848;71;33313;-81
2022/03/04 22:59:35;;;;;;;89.73;83.27;;;;;;;7.88;100.00;102187.48;2006433;71;32864;-75
2022/03/04 23:11:25;;;;;;;84.17;78.07;;;;;;;7.79;100.00;102185.59;2006282;71;32831;-77
2022/03/04 23:17:10;;;;;;;86.20;80.07;;;;;;;7.63;100.00;102189.01;1995086;71;32981;-75
2022/03/04 23:22:54;;;;;;;87.77;81.47;;;;;;;7.65;100.00;102189.63;2018221;71;32821;-76
2022/03/04 23:28:38;;;;;;;83.53;77.33;;;;;;;7.75;100.00;102186.60;1996996;71;32826;-76
2022/03/04 23:34:23;;;;;;;81.57;75.63;;;;;;;7.65;100.00;102189.63;2000366;71;33266;-76
2022/03/04 23:40:10;;;;;;;82.77;76.70;;;;;;;7.75;100.00;102185.22;2005590;71;32821;-75
2022/03/04 23:45:56;;;;;;;79.83;74.23;;;;;;;7.73;100.00;102184.62;2008015;71;32773;-76
2022/03/04 23:51:41;;;;;;;73.67;68.47;;;;;;;7.79;100.00;102185.59;1996893;70;33223;-76
2022/03/04 23:57:30;;;;;;;73.73;68.50;;;;;;;7.89;100.00;102185.03;2004963;70;32912;-75
